sensor_id;sensor_type;location;lat;lon;timestamp;P1;P2;P0
54587;PMS7003;40484;50.198;19.576;2023-03-21T08:46:13;31;30;19
54587;PMS7003;40484;50.198;19.576;2023-03-21T08:51:15;29;28;17
54587;PMS7003;40484;50.198;19.576;2023-03-21T08:56:17;22;22;14
54587;PMS7003;40484;50.198;19.576;2023-03-21T09:01:18;23;20;12
54587;PMS7003;40484;50.198;19.576;2023-03-21T09:06:46;28;26;16
54587;PMS7003;40484;50.198;19.576;2023-03-21T09:11:48;29;27;17
54587;PMS7003;40484;50.198;19.576;2023-03-21T09:16:50;34;30;18
54587;PMS7003;40484;50.198;19.576;2023-03-21T09:21:51;39;30;18
54587;PMS7003;40484;50.198;19.576;2023-03-21T09:26:53;38;33;20
54587;PMS7003;40484;50.198;19.576;2023-03-21T09:31:55;32;30;16
54587;PMS7003;40484;50.198;19.576;2023-03-21T09:36:57;35;32;19
54587;PMS7003;40484;50.198;19.576;2023-03-21T09:47:27;29;27;16
54587;PMS7003;40484;50.198;19.576;2023-03-21T10:03:53;36;32;19
54587;PMS7003;40484;50.198;19.576;2023-03-21T10:09:00;39;32;18
54587;PMS7003;40484;50.198;19.576;2023-03-21T10:14:02;33;28;19
54587;PMS7003;40484;50.198;19.576;2023-03-21T10:19:14;44;37;21
54587;PMS7003;40484;50.198;19.576;2023-03-21T10:24:20;25;23;9
54587;PMS7003;40484;50.198;19.576;2023-03-21T10:29:21;43;36;21
54587;PMS7003;40484;50.198;19.576;2023-03-21T10:39:40;48;39;23
54587;PMS7003;40484;50.198;19.576;2023-03-21T10:44:45;38;34;21
54587;PMS7003;40484;50.198;19.576;2023-03-21T10:49:47;51;40;23
54587;PMS7003;40484;50.198;19.576;2023-03-21T10:54:48;52;35;22
54587;PMS7003;40484;50.198;19.576;2023-03-21T10:59:52;44;35;22
54587;PMS7003;40484;50.198;19.576;2023-03-21T11:04:54;25;25;14
54587;PMS7003;40484;50.198;19.576;2023-03-21T11:09:59;36;30;18
54587;PMS7003;40484;50.198;19.576;2023-03-21T11:15:33;41;36;20
54587;PMS7003;40484;50.198;19.576;2023-03-21T11:20:48;41;33;18
54587;PMS7003;40484;50.198;19.576;2023-03-21T11:26:07;37;34;22
54587;PMS7003;40484;50.198;19.576;2023-03-21T11:31:08;46;35;21
54587;PMS7003;40484;50.198;19.576;2023-03-21T11:41:30;34;31;17
54587;PMS7003;40484;50.198;19.576;2023-03-21T11:46:32;37;29;17
54587;PMS7003;40484;50.198;19.576;2023-03-21T11:51:40;39;33;20
54587;PMS7003;40484;50.198;19.576;2023-03-21T11:56:50;42;35;20
54587;PMS7003;40484;50.198;19.576;2023-03-21T12:02:24;42;37;23
54587;PMS7003;40484;50.198;19.576;2023-03-21T12:07:32;36;31;21
54587;PMS7003;40484;50.198;19.576;2023-03-21T12:12:58;44;31;19
54587;PMS7003;40484;50.198;19.576;2023-03-21T12:18:26;36;32;17
54587;PMS7003;40484;50.198;19.576;2023-03-21T12:34:26;40;34;22
54587;PMS7003;40484;50.198;19.576;2023-03-21T12:39:38;43;35;20
54587;PMS7003;40484;50.198;19.576;2023-03-21T12:44:42;30;27;18
54587;PMS7003;40484;50.198;19.576;2023-03-21T12:49:50;33;29;17
54587;PMS7003;40484;50.198;19.576;2023-03-21T12:55:17;33;30;19
54587;PMS7003;40484;50.198;19.576;2023-03-21T13:05:45;34;30;17
54587;PMS7003;40484;50.198;19.576;2023-03-21T13:11:25;82;69;37
54587;PMS7003;40484;50.198;19.576;2023-03-21T13:27:21;48;37;22
54587;PMS7003;40484;50.198;19.576;2023-03-21T13:32:28;52;39;24
54587;PMS7003;40484;50.198;19.576;2023-03-21T13:38:01;43;37;22
54587;PMS7003;40484;50.198;19.576;2023-03-21T13:42:58;41;34;19
54587;PMS7003;40484;50.198;19.576;2023-03-21T13:48:26;32;29;17
54587;PMS7003;40484;50.198;19.576;2023-03-21T13:53:37;35;31;19
54587;PMS7003;40484;50.198;19.576;2023-03-21T14:03:47;34;30;18
54587;PMS7003;40484;50.198;19.576;2023-03-21T14:08:49;30;26;16
54587;PMS7003;40484;50.198;19.576;2023-03-21T14:13:51;19;18;14
54587;PMS7003;40484;50.198;19.576;2023-03-21T14:18:55;32;27;18
54587;PMS7003;40484;50.198;19.576;2023-03-21T14:24:04;28;26;17
54587;PMS7003;40484;50.198;19.576;2023-03-21T14:29:07;41;33;20
54587;PMS7003;40484;50.198;19.576;2023-03-21T14:34:10;46;38;23
54587;PMS7003;40484;50.198;19.576;2023-03-21T14:39:16;34;30;18
54587;PMS7003;40484;50.198;19.576;2023-03-21T14:44:25;52;39;22
54587;PMS7003;40484;50.198;19.576;2023-03-21T14:49:29;45;36;21
54587;PMS7003;40484;50.198;19.576;2023-03-21T14:54:32;35;31;18
54587;PMS7003;40484;50.198;19.576;2023-03-21T14:59:59;40;32;19
54587;PMS7003;40484;50.198;19.576;2023-03-21T15:10:14;24;22;14
54587;PMS7003;40484;50.198;19.576;2023-03-21T15:15:17;37;31;19
54587;PMS7003;40484;50.198;19.576;2023-03-21T15:20:21;33;29;19
54587;PMS7003;40484;50.198;19.576;2023-03-21T15:25:28;66;51;30
54587;PMS7003;40484;50.198;19.576;2023-03-21T15:30:30;38;32;19
54587;PMS7003;40484;50.198;19.576;2023-03-21T15:35:40;32;29;17
54587;PMS7003;40484;50.198;19.576;2023-03-21T15:40:46;38;31;20
54587;PMS7003;40484;50.198;19.576;2023-03-21T15:45:49;41;36;23
54587;PMS7003;40484;50.198;19.576;2023-03-21T15:56:01;42;36;22
54587;PMS7003;40484;50.198;19.576;2023-03-21T16:01:06;39;35;21
54587;PMS7003;40484;50.198;19.576;2023-03-21T16:06:35;72;57;33
54587;PMS7003;40484;50.198;19.576;2023-03-21T16:11:42;66;47;28
54587;PMS7003;40484;50.198;19.576;2023-03-21T16:16:42;61;45;27
54587;PMS7003;40484;50.198;19.576;2023-03-21T16:21:44;33;28;18
54587;PMS7003;40484;50.198;19.576;2023-03-21T16:26:47;35;30;19
54587;PMS7003;40484;50.198;19.576;2023-03-21T16:31:52;53;43;27
54587;PMS7003;40484;50.198;19.576;2023-03-21T16:36:54;49;42;25
54587;PMS7003;40484;50.198;19.576;2023-03-21T16:41:56;73;57;34
54587;PMS7003;40484;50.198;19.576;2023-03-21T16:46:58;58;47;28
54587;PMS7003;40484;50.198;19.576;2023-03-21T16:52:00;71;56;32
54587;PMS7003;40484;50.198;19.576;2023-03-21T16:57:02;57;44;25
54587;PMS7003;40484;50.198;19.576;2023-03-21T17:02:10;66;54;33
54587;PMS7003;40484;50.198;19.576;2023-03-21T17:07:13;95;77;41
54587;PMS7003;40484;50.198;19.576;2023-03-21T17:12:16;56;45;29
54587;PMS7003;40484;50.198;19.576;2023-03-21T17:17:18;70;55;34
54587;PMS7003;40484;50.198;19.576;2023-03-21T17:22:21;65;50;31
54587;PMS7003;40484;50.198;19.576;2023-03-21T17:27:22;57;41;25
54587;PMS7003;40484;50.198;19.576;2023-03-21T17:32:24;49;40;25
54587;PMS7003;40484;50.198;19.576;2023-03-21T17:37:50;66;51;31
54587;PMS7003;40484;50.198;19.576;2023-03-21T17:42:52;55;43;29
54587;PMS7003;40484;50.198;19.576;2023-03-21T17:47:55;53;43;27
54587;PMS7003;40484;50.198;19.576;2023-03-21T17:52:56;58;45;28
54587;PMS7003;40484;50.198;19.576;2023-03-21T17:57:58;55;44;28
54587;PMS7003;40484;50.198;19.576;2023-03-21T18:03:00;66;52;33
54587;PMS7003;40484;50.198;19.576;2023-03-21T18:08:01;51;41;27
54587;PMS7003;40484;50.198;19.576;2023-03-21T18:13:03;54;40;26
54587;PMS7003;40484;50.198;19.576;2023-03-21T18:18:04;54;41;26
54587;PMS7003;40484;50.198;19.576;2023-03-21T18:23:06;53;42;25
54587;PMS7003;40484;50.198;19.576;2023-03-21T18:28:08;58;46;27
54587;PMS7003;40484;50.198;19.576;2023-03-21T18:33:09;54;42;25
54587;PMS7003;40484;50.198;19.576;2023-03-21T18:38:12;55;43;26
54587;PMS7003;40484;50.198;19.576;2023-03-21T18:43:13;59;44;27
54587;PMS7003;40484;50.198;19.576;2023-03-21T18:48:15;51;41;25
54587;PMS7003;40484;50.198;19.576;2023-03-21T18:53:17;49;41;26
54587;PMS7003;40484;50.198;19.576;2023-03-21T19:00:28;56;45;28
54587;PMS7003;40484;50.198;19.576;2023-03-21T19:05:30;63;51;32
54587;PMS7003;40484;50.198;19.576;2023-03-21T19:10:31;60;45;27
54587;PMS7003;40484;50.198;19.576;2023-03-21T19:15:33;52;42;24
54587;PMS7003;40484;50.198;19.576;2023-03-21T19:20:35;56;44;26
54587;PMS7003;40484;50.198;19.576;2023-03-21T19:25:37;59;47;29
54587;PMS7003;40484;50.198;19.576;2023-03-21T19:30:38;54;43;25
54587;PMS7003;40484;50.198;19.576;2023-03-21T19:35:41;59;45;27
54587;PMS7003;40484;50.198;19.576;2023-03-21T19:40:43;49;41;24
54587;PMS7003;40484;50.198;19.576;2023-03-21T19:45:45;56;47;28
54587;PMS7003;40484;50.198;19.576;2023-03-21T19:50:50;45;38;25
54587;PMS7003;40484;50.198;19.576;2023-03-21T19:55:52;66;50;32
54587;PMS7003;40484;50.198;19.576;2023-03-21T20:00:53;57;46;31
54587;PMS7003;40484;50.198;19.576;2023-03-21T20:06:05;55;44;28
54587;PMS7003;40484;50.198;19.576;2023-03-21T20:11:08;63;49;31
54587;PMS7003;40484;50.198;19.576;2023-03-21T20:16:09;67;52;33
54587;PMS7003;40484;50.198;19.576;2023-03-21T20:21:11;63;49;31
54587;PMS7003;40484;50.198;19.576;2023-03-21T20:26:14;75;63;35
54587;PMS7003;40484;50.198;19.576;2023-03-21T20:31:40;69;56;31
54587;PMS7003;40484;50.198;19.576;2023-03-21T20:36:42;74;64;36
54587;PMS7003;40484;50.198;19.576;2023-03-21T20:41:44;81;69;39
54587;PMS7003;40484;50.198;19.576;2023-03-21T20:46:46;72;59;30
54587;PMS7003;40484;50.198;19.576;2023-03-21T20:51:48;76;65;37
54587;PMS7003;40484;50.198;19.576;2023-03-21T20:56:50;83;71;41
54587;PMS7003;40484;50.198;19.576;2023-03-21T21:01:51;83;68;39
54587;PMS7003;40484;50.198;19.576;2023-03-21T21:06:53;74;64;36
54587;PMS7003;40484;50.198;19.576;2023-03-21T21:11:55;74;61;35
54587;PMS7003;40484;50.198;19.576;2023-03-21T21:16:56;68;56;33
54587;PMS7003;40484;50.198;19.576;2023-03-21T21:21:58;75;64;37
54587;PMS7003;40484;50.198;19.576;2023-03-21T21:27:00;73;61;36
54587;PMS7003;40484;50.198;19.576;2023-03-21T21:32:01;70;58;34
54587;PMS7003;40484;50.198;19.576;2023-03-21T21:37:04;68;56;34
54587;PMS7003;40484;50.198;19.576;2023-03-21T21:42:06;72;61;35
54587;PMS7003;40484;50.198;19.576;2023-03-21T21:47:08;75;65;38
